Big Cabin, Oklahoma
Current Conditions -  °F | °C
As of 8:15 PM on Friday 24 Oct 2014 (Local Time) from KGCM Reporting Station
Clear Clear  
Wind Chill: 18°   Ceiling: Unl
Heat Index: 18°   Visibility: 10mi
Dew Point: 15°   Wind: 6mph
Humidity: 83%   Direction: 170°S
Pressure: 30.07"   Gusts: NA
Location:  36.54°N, 95.22°W
Report Text: KGCM 250115Z AUTO 17005KT 10SM CLR 18/15 A3007 RMK AO2
Loading
Personal Weather Stations






























Interactive Weather Map
Tropical Storm Tracking
New forecast layout! Learn more

10-Day Weather Forecast

Advertisements
Track Severe Weather on mobile